Date,TemperatureHighF,TemperatureAvgF,TemperatureLowF,DewpointHighF,DewpointAvgF,DewpointLowF,HumidityHigh,HumidityAvg,HumidityLow,PressureMaxIn,PressureMinIn,WindSpeedMaxMPH,WindSpeedAvgMPH,GustSpeedMaxMPH,PrecipitationSumIn
2014-1-1,14,12,11,11,7,3,88,79,68,30.45,30.31,6,2,12,0.03
2014-1-2,15,11,3,9,5,-2,82,75,59,30.42,30.24,8,2,12,0.00
2014-1-3,18,9,-2,7,1,-6,86,71,54,30.49,30.06,12,3,19,0.00
2014-1-4,31,25,16,28,20,8,91,79,67,30.05,29.87,15,3,17,0.12
2014-1-5,31,24,17,28,22,14,92,91,90,30.07,29.82,7,2,10,0.22
2014-1-6,16,4,-2,14,2,-5,90,88,83,30.12,29.82,13,5,22,0.00
2014-1-7,8,4,-1,6,2,-4,90,89,87,30.34,30.11,11,4,16,0.00
2014-1-8,18,12,6,16,10,3,91,90,88,30.56,30.33,6,1,10,0.01
2014-1-9,23,16,12,21,13,10,91,90,87,30.60,30.27,5,1,7,0.00
2014-1-10,42,32,23,39,30,21,92,91,90,30.26,29.58,11,2,16,0.71
2014-1-11,42,37,33,40,34,29,92,89,84,29.69,29.39,11,4,18,0.13
2014-1-12,41,36,32,31,29,28,87,77,63,29.92,29.68,9,3,15,0.00
2014-1-13,44,39,30,36,34,27,91,80,67,29.71,29.53,8,2,15,0.00
2014-1-14,36,30,24,31,26,22,92,84,64,29.76,29.63,14,3,22,0.02
2014-1-15,30,24,19,27,19,14,92,82,69,30.03,29.61,15,4,22,0.00
2014-1-16,32,24,17,30,20,12,91,85,79,29.92,29.57,15,4,16,0.04
2014-1-17,32,23,18,30,19,14,92,85,81,29.94,29.59,12,4,18,0.02
2014-1-18,24,20,13,20,16,11,91,83,69,29.92,29.86,7,2,11,0.01
2014-1-19,34,27,14,31,23,12,90,87,82,29.87,29.52,14,4,23,0.00
2014-1-20,34,23,11,30,18,3,88,79,70,30.14,29.53,8,2,14,0.00
2014-1-21,14,10,4,6,0,-2,82,67,51,30.31,30.14,6,1,9,0.00
2014-1-22,14,11,8,8,5,2,88,79,69,30.23,29.91,9,2,15,0.03
2014-1-23,18,11,4,10,5,1,88,76,49,30.53,30.04,5,1,9,0.01
2014-1-24,25,14,2,23,8,-2,92,81,59,30.49,29.46,16,5,30,0.02
2014-1-25,30,18,10,27,15,3,92,87,60,29.82,29.34,12,5,20,0.09
2014-1-26,24,15,9,20,12,7,92,88,81,29.81,29.39,11,3,17,0.06
2014-1-27,15,6,2,12,3,-1,90,89,84,30.36,29.57,11,5,18,0.00
2014-1-28,8,6,0,6,3,-3,90,89,86,30.37,30.19,10,3,17,0.00
2014-1-29,20,13,8,10,6,3,90,74,63,30.19,30.09,13,5,21,0.00
2014-1-30,32,24,14,29,15,6,91,71,53,30.09,29.72,13,4,21,0.05
2014-1-31,32,24,19,29,19,15,87,81,73,30.17,29.84,8,2,15,0.00
2014-2-1,28,24,21,25,21,17,92,90,86,30.16,29.88,4,1,6,0.26
2014-2-2,24,20,9,21,16,6,91,83,68,30.34,30.06,8,2,11,0.00
2014-2-3,23,13,0,15,8,-3,88,82,69,30.42,30.33,6,1,9,0.00
2014-2-4,26,17,7,18,12,4,89,81,66,30.48,30.21,3,0,6,0.00
2014-2-5,24,19,14,18,14,7,91,80,56,30.43,30.09,8,2,11,0.07
2014-2-6,17,14,10,14,10,6,89,85,78,30.42,30.32,11,3,16,0.00
2014-2-7,15,11,9,8,6,3,89,81,72,30.36,30.31,14,5,22,0.00
2014-2-8,22,15,9,14,10,5,86,82,72,30.35,30.19,7,1,9,0.00
2014-2-9,22,18,15,17,14,11,90,84,70,30.24,30.09,10,2,14,0.02
2014-2-10,17,14,9,14,9,4,89,81,69,30.46,30.23,7,2,14,0.00
2014-2-11,21,12,3,8,5,0,87,74,56,30.55,30.46,5,1,9,0.00
2014-2-12,25,13,-1,12,4,-4,87,71,50,30.46,30.10,4,1,9,0.00
2014-2-13,32,26,20,23,15,8,84,64,39,30.10,29.50,8,2,14,0.00
2014-2-14,28,24,15,26,19,10,91,83,76,29.91,29.48,11,4,16,0.01
2014-2-15,24,16,9,15,11,6,89,79,63,30.11,29.91,6,1,9,0.00
2014-2-16,30,22,15,20,16,11,88,78,60,30.36,29.98,4,1,6,0.02
2014-2-17,20,16,11,17,12,7,91,85,62,30.38,29.72,10,2,18,0.26
2014-2-18,43,31,17,32,24,15,91,77,59,30.01,29.65,9,2,13,0.02
2014-2-19,41,35,26,32,29,23,91,80,64,30.03,29.62,8,2,12,0.00
2014-2-20,43,34,26,40,31,23,91,89,80,30.04,29.31,12,2,25,0.50
2014-2-21,38,32,27,34,25,16,92,77,59,29.77,29.37,19,9,33,0.01
2014-2-22,32,26,23,21,18,16,77,69,60,30.04,29.77,12,5,22,0.00
2014-2-23,24,22,18,17,14,11,83,72,62,30.15,30.04,12,5,23,0.00
2014-2-24,22,19,15,16,12,11,88,77,67,30.23,30.13,13,5,18,0.00
2014-2-25,20,16,11,15,11,7,89,79,66,30.23,30.09,10,3,20,0.00
2014-2-26,16,11,5,14,6,2,91,80,68,30.17,29.61,13,4,29,0.00
2014-2-27,16,7,-4,14,1,-7,91,76,55,30.28,29.58,10,4,19,0.00
2014-2-28,20,8,-7,9,-2,-11,85,65,44,30.35,30.10,8,2,16,0.00
2014-3-1,25,20,12,20,14,10,90,79,62,30.38,30.08,7,2,10,0.07
2014-3-2,18,12,3,10,5,-3,87,75,61,30.46,30.34,6,2,9,0.02
2014-3-3,16,6,-4,1,-3,-8,85,67,43,30.57,30.46,6,1,8,0.00
2014-3-4,22,16,10,13,8,-1,83,70,61,30.45,30.25,5,1,9,0.01
2014-3-5,26,18,13,13,10,4,83,69,51,30.56,30.32,8,2,10,0.00
2014-3-6,32,19,7,15,10,4,89,69,44,30.57,30.18,7,1,12,0.00
2014-3-7,49,33,13,31,20,10,88,63,35,30.18,29.89,6,1,13,0.00
2014-3-8,37,31,19,31,23,16,85,74,58,30.25,29.96,10,2,10,0.00
2014-3-9,39,27,13,34,20,10,91,77,50,30.25,29.84,12,2,16,0.00
2014-3-10,50,42,37,37,34,33,84,75,60,29.83,29.59,11,3,18,0.00
2014-3-11,48,41,37,37,35,33,89,79,61,29.77,29.65,5,1,8,0.01
2014-3-12,36,27,13,32,18,2,91,72,37,30.11,29.72,9,3,14,0.06
2014-3-13,30,19,5,22,11,1,85,70,51,30.20,29.93,7,2,15,0.00
2014-3-14,51,41,27,35,31,22,86,70,46,29.92,29.55,16,5,24,0.00
2014-3-15,38,33,26,33,22,8,85,65,46,30.34,29.76,10,3,15,0.00
2014-3-16,26,18,9,8,4,-1,68,55,40,30.46,30.28,8,3,13,0.00
2014-3-17,34,22,9,15,7,-1,73,55,40,30.27,29.91,8,2,13,0.00
2014-3-18,48,35,22,33,25,15,80,68,55,30.00,29.84,7,2,12,0.00
2014-3-19,44,38,33,41,34,30,91,88,77,29.88,29.58,11,3,17,0.13
2014-3-20,37,34,26,31,25,22,91,72,56,30.10,29.87,12,4,17,0.01
2014-3-21,46,34,22,37,26,19,91,74,50,30.10,29.71,8,1,14,0.20
2014-3-22,40,34,24,37,28,14,91,79,64,30.31,29.72,8,3,15,0.00
2014-3-23,24,20,14,17,10,7,82,66,56,30.46,30.32,10,2,11,0.00
2014-3-24,28,22,13,16,13,10,88,69,52,30.42,30.09,13,3,18,0.00
2014-3-25,27,23,17,23,16,10,90,73,53,30.24,29.97,13,4,18,0.03
2014-3-26,34,24,12,20,13,9,89,67,43,30.38,30.10,6,1,12,0.00
2014-3-27,43,37,33,40,30,20,90,76,53,30.10,29.55,9,3,16,0.08
2014-3-28,49,39,31,47,35,28,91,86,79,30.22,29.46,11,3,21,0.31
2014-3-29,44,36,31,31,29,27,88,77,55,30.26,30.16,5,1,11,0.00
2014-3-30,54,38,23,30,26,21,91,65,38,30.29,30.10,7,1,8,0.00
2014-3-31,64,49,31,37,33,27,88,58,31,30.15,29.83,14,3,22,0.00
2014-4-1,57,42,33,46,33,25,83,72,48,30.06,29.68,16,5,27,0.07
2014-4-2,53,40,28,30,28,23,86,63,41,30.22,30.06,5,1,7,0.00
2014-4-3,43,38,33,32,28,24,85,68,51,30.17,29.84,12,3,20,0.19
2014-4-4,44,37,32,42,34,29,90,88,81,29.83,29.44,12,4,23,0.35
2014-4-5,46,37,31,29,25,20,89,65,38,30.20,29.84,10,4,18,0.00
2014-4-6,59,43,27,33,27,23,85,57,29,30.21,30.00,6,1,13,0.00
2014-4-7,58,46,33,34,31,28,88,59,34,30.00,29.57,10,1,10,0.00
2014-4-8,57,48,38,40,34,29,81,61,46,29.89,29.56,12,2,18,0.00
2014-4-9,57,48,32,35,30,24,78,51,36,30.03,29.86,9,2,17,0.00
2014-4-10,62,55,43,43,37,33,72,52,42,29.89,29.66,17,4,23,0.00
2014-4-11,64,50,33,38,30,20,89,53,22,30.04,29.90,7,2,15,0.00
2014-4-12,70,53,42,48,39,30,87,62,26,30.06,29.76,8,2,14,0.11
2014-4-13,65,57,50,57,52,47,88,83,71,29.79,29.51,12,2,19,0.85
2014-4-14,66,45,26,60,40,24,90,84,73,29.94,29.30,13,5,24,0.24
2014-4-15,34,28,24,24,16,9,90,64,37,30.29,29.92,16,4,20,0.00
2014-4-16,49,37,22,28,21,17,83,55,35,30.44,30.28,11,3,17,0.00
2014-4-17,62,48,35,40,33,27,74,58,37,30.32,30.19,12,4,17,0.00
2014-4-18,58,49,42,42,38,29,87,66,47,30.37,30.25,9,2,14,0.00
2014-4-19,64,48,34,35,31,27,82,54,30,30.47,30.27,9,2,13,0.00
2014-4-20,76,59,42,43,35,29,64,43,26,30.32,30.04,7,2,11,0.00
2014-4-21,75,64,56,53,45,35,86,53,37,30.04,29.74,10,2,16,0.11
2014-4-22,55,47,39,51,36,29,88,68,51,30.04,29.70,12,4,17,0.00
2014-4-23,56,44,32,32,29,24,85,58,32,30.17,30.04,7,2,13,0.00
2014-4-24,59,51,45,38,30,23,65,46,28,30.13,29.81,13,3,17,0.00
2014-4-25,59,49,41,44,39,25,88,71,40,29.81,29.67,10,2,16,0.15
2014-4-26,59,48,39,42,36,33,84,64,40,30.08,29.80,8,2,12,0.00
2014-4-27,59,48,40,36,33,30,77,59,40,30.18,30.00,13,4,23,0.00
2014-4-28,59,50,45,40,36,32,67,58,42,30.02,29.72,19,5,23,0.00
2014-4-29,68,54,45,57,48,38,87,79,60,29.72,29.50,13,2,29,0.57
2014-4-30,60,53,44,51,47,39,87,80,67,29.81,29.68,8,2,14,0.00
2014-5-1,47,44,40,43,40,36,88,86,81,29.80,29.71,16,2,16,0.17
2014-5-2,50,46,44,45,43,40,88,87,79,29.79,29.74,9,3,17,0.02
2014-5-3,58,51,45,47,43,38,88,75,49,29.84,29.61,13,4,25,0.14
2014-5-4,57,50,46,42,36,29,83,59,40,30.10,29.83,10,3,20,0.00
2014-5-5,60,50,44,39,37,34,75,62,42,30.10,29.96,4,1,8,0.00
2014-5-6,66,54,42,42,40,37,86,62,39,30.09,29.98,9,2,15,0.00
2014-5-7,65,54,45,54,47,40,87,77,61,30.04,29.87,9,3,16,0.52
2014-5-8,89,71,52,68,58,47,84,65,47,29.92,29.78,8,2,12,0.00
2014-5-9,79,68,55,64,58,45,85,72,55,29.79,29.62,14,4,22,0.55
2014-5-10,67,58,48,47,44,40,85,62,40,30.00,29.80,12,3,15,0.00
2014-5-11,82,66,46,61,50,42,86,60,33,30.02,29.89,9,1,12,0.00
2014-5-12,81,69,59,72,62,55,85,80,62,29.94,29.84,8,1,20,0.55
2014-5-13,73,65,53,68,60,50,87,85,77,30.09,29.77,11,3,17,0.04
2014-5-14,59,54,48,51,46,43,87,78,59,30.16,29.98,4,1,10,0.31
2014-5-15,48,43,37,44,40,34,89,86,78,30.06,29.81,9,2,18,0.44
2014-5-16,48,40,31,37,34,28,90,77,63,30.09,30.04,7,2,12,0.01
2014-5-17,56,47,36,42,34,29,89,66,36,30.16,30.07,11,2,16,0.00
2014-5-18,66,55,40,42,38,33,86,54,33,30.25,30.17,12,3,20,0.00
2014-5-19,73,60,45,51,42,39,85,56,30,30.28,30.06,10,2,14,0.12
2014-5-20,78,62,53,64,55,47,86,78,61,30.13,29.81,3,1,11,0.06
2014-5-21,82,71,60,69,61,53,86,71,38,29.87,29.79,7,2,11,0.23
2014-5-22,69,61,52,55,50,47,87,70,47,30.09,29.88,13,2,16,0.00
2014-5-23,67,58,49,51,48,44,87,71,55,30.18,30.10,6,2,12,0.00
2014-5-24,78,62,44,51,47,41,87,62,36,30.24,30.13,9,1,13,0.00
2014-5-25,80,67,50,55,51,46,86,60,37,30.16,30.02,8,1,13,0.00
2014-5-26,83,71,56,67,60,52,86,69,49,30.04,29.89,11,2,13,0.00
2014-5-27,79,72,67,70,66,62,85,81,72,29.93,29.84,12,2,13,0.00
2014-5-28,76,67,61,64,59,53,86,74,58,30.07,29.89,5,1,8,0.00
2014-5-29,82,68,52,59,54,48,86,64,40,30.14,30.06,4,1,7,0.00
2014-5-30,88,72,55,60,56,51,86,61,32,30.20,30.10,5,1,7,0.00
2014-5-31,90,75,61,60,58,55,85,59,35,30.20,30.05,2,0,9,0.00
2014-6-1,90,77,60,62,55,47,65,48,31,30.12,29.89,8,2,12,0.00
2014-6-2,83,76,70,72,67,62,83,73,64,29.92,29.74,15,3,20,0.34
2014-6-3,73,68,62,63,57,51,84,67,50,29.91,29.75,16,4,21,0.09
2014-6-4,71,63,57,61,56,53,86,80,68,29.91,29.84,4,0,10,0.27
2014-6-5,74,62,47,52,47,41,87,60,36,29.99,29.86,8,1,10,0.01
2014-6-6,82,66,50,53,49,43,86,59,33,30.02,29.93,7,1,12,0.00
2014-6-7,86,72,54,58,52,47,86,54,28,30.03,29.83,6,1,12,0.00
2014-6-8,78,70,60,61,57,51,85,65,50,29.99,29.79,4,1,9,0.22
2014-6-9,84,70,59,59,56,51,85,61,40,30.03,29.90,5,1,9,0.00
2014-6-10,78,69,61,63,56,52,84,66,50,29.94,29.84,6,1,11,0.06
2014-6-11,75,65,57,69,60,52,85,84,81,29.84,29.67,3,0,7,1.15
2014-6-12,78,65,56,66,59,52,86,80,64,29.78,29.69,10,2,17,0.00
2014-6-13,67,59,53,57,48,45,84,69,49,30.03,29.77,10,2,19,0.00
2014-6-14,81,63,45,51,47,41,87,59,32,30.15,30.01,5,1,7,0.00
2014-6-15,83,71,56,65,56,49,80,59,41,30.06,29.84,7,2,19,0.00
2014-6-16,85,77,67,68,63,57,84,64,40,30.03,29.89,7,2,12,0.00
2014-6-17,82,77,71,72,67,60,84,72,58,29.92,29.75,17,3,24,0.02
2014-6-18,71,68,65,66,63,59,84,83,81,30.01,29.81,16,1,31,2.11
2014-6-19,81,71,64,67,63,54,85,75,59,30.13,30.00,5,1,13,0.00
2014-6-20,70,64,61,63,58,52,85,80,65,30.08,29.94,4,1,9,0.05
2014-6-21,80,69,60,67,62,56,86,77,63,30.00,29.84,7,1,11,1.02
2014-6-22,84,74,63,71,65,58,85,75,60,29.92,29.82,4,1,9,0.01
2014-6-23,79,70,66,71,65,60,84,83,76,29.88,29.80,3,0,7,0.57
2014-6-24,81,73,69,71,67,64,84,80,67,29.86,29.82,4,1,10,0.11
2014-6-25,80,70,63,69,64,57,85,82,69,29.99,29.86,2,0,8,1.01
2014-6-26,82,70,61,68,63,57,87,77,59,30.07,29.98,2,0,6,0.00
2014-6-27,89,76,62,69,65,57,85,70,49,30.07,29.99,4,0,11,0.00
2014-6-28,88,78,68,74,69,63,85,76,60,30.05,29.95,7,1,11,0.01
2014-6-29,86,78,71,71,69,66,84,75,56,29.97,29.85,10,2,17,0.44
2014-6-30,88,78,68,75,70,63,84,77,60,29.90,29.63,13,3,21,0.28
2014-7-1,80,72,65,67,63,60,85,75,57,29.71,29.52,12,3,20,0.17
2014-7-2,70,65,60,64,59,55,85,81,73,29.96,29.71,11,3,16,0.00
2014-7-3,73,64,56,57,52,47,86,67,43,30.16,29.96,9,2,14,0.13
2014-7-4,80,67,52,56,50,44,87,60,32,30.30,30.16,6,1,10,0.00
2014-7-5,78,67,52,59,54,48,86,66,46,30.28,30.04,8,1,11,0.00
2014-7-6,81,72,62,72,64,58,85,78,67,30.04,29.64,8,2,15,1.03
2014-7-7,83,76,68,72,66,60,85,72,45,29.71,29.60,11,3,21,0.26
2014-7-8,74,70,66,66,63,60,85,79,68,29.75,29.55,11,3,18,0.54
2014-7-9,74,66,60,60,57,53,86,72,50,30.02,29.75,8,2,13,0.00
2014-7-10,80,67,53,58,54,49,86,66,41,30.18,30.02,5,1,7,0.00
2014-7-11,83,70,56,62,58,51,86,67,43,30.22,30.09,6,1,9,0.00
2014-7-12,79,71,62,72,65,58,85,81,63,30.13,29.81,6,1,10,0.17
2014-7-13,79,73,66,69,65,61,87,77,58,29.89,29.75,8,2,19,1.04
2014-7-14,78,70,60,65,60,54,87,72,46,29.84,29.74,6,1,13,0.00
2014-7-15,65,61,57,57,55,51,87,80,70,29.93,29.75,10,3,19,0.05
2014-7-16,70,62,56,56,53,50,86,74,58,30.02,29.92,9,2,10,0.00
2014-7-17,75,64,50,58,52,47,88,67,43,30.12,30.02,10,2,13,0.00
2014-7-18,81,67,52,59,54,48,87,65,39,30.20,30.11,7,1,9,0.00
2014-7-19,85,71,57,62,58,53,86,65,38,30.11,29.98,3,0,8,0.00
2014-7-20,84,72,59,63,59,55,86,68,42,30.06,30.00,4,0,9,0.00
2014-7-21,86,74,62,68,64,57,85,71,52,30.09,30.02,5,1,10,0.00
2014-7-22,90,77,66,74,68,61,85,73,52,30.05,29.86,8,2,16,0.18
2014-7-23,77,68,61,64,59,55,86,72,53,30.10,29.92,5,1,9,0.00
2014-7-24,78,66,54,56,53,50,86,64,41,30.16,30.04,8,1,11,0.00
2014-7-25,76,65,52,61,56,48,87,73,54,30.09,29.91,7,1,12,0.00
2014-7-26,79,70,60,68,63,56,86,77,62,29.93,29.75,5,1,9,0.00
2014-7-27,83,70,62,72,64,57,86,81,60,29.79,29.60,9,2,17,0.05
2014-7-28,70,63,56,60,54,50,87,76,54,30.03,29.78,5,1,12,0.01
2014-7-29,74,63,52,61,55,48,87,77,56,30.02,29.95,11,2,15,0.00
2014-7-30,74,64,55,62,55,48,87,74,43,30.01,29.96,11,2,15,0.00
2014-7-31,78,67,55,63,58,51,87,75,59,30.01,29.98,8,2,14,0.00
2014-8-1,83,72,61,66,61,57,86,70,47,30.08,30.00,5,1,10,0.00
2014-8-2,83,70,58,63,59,54,86,69,45,30.13,30.06,7,1,11,0.00
2014-8-3,85,71,57,66,60,52,86,70,43,30.13,30.03,4,1,10,0.00
2014-8-4,84,74,64,69,65,59,86,74,57,30.07,30.00,5,1,12,0.00
2014-8-5,79,72,68,71,66,63,86,81,68,30.04,29.98,5,0,6,0.12
2014-8-6,84,72,61,66,59,52,87,68,35,30.06,29.99,5,1,7,0.01
2014-8-7,85,71,57,61,57,53,87,65,36,30.12,30.03,4,0,9,0.00
2014-8-8,85,73,60,63,59,54,85,63,35,30.13,30.05,5,1,9,0.00
2014-8-9,83,72,59,62,58,54,84,65,43,30.13,30.05,7,1,10,0.00
2014-8-10,86,74,60,67,62,55,85,68,48,30.09,29.95,5,1,7,0.00
2014-8-11,80,73,69,71,67,64,84,81,70,29.96,29.71,4,0,8,0.00
2014-8-12,70,64,58,65,59,54,86,84,81,29.91,29.65,9,2,11,0.11
2014-8-13,78,65,52,60,54,48,86,69,44,30.00,29.92,6,1,13,0.01
2014-8-14,70,61,51,52,49,44,86,66,45,30.10,30.01,10,1,15,0.00
2014-8-15,73,61,46,57,49,42,86,68,42,30.07,29.95,10,2,14,0.00
2014-8-16,79,69,56,68,62,51,85,77,63,29.94,29.85,12,2,17,0.00
2014-8-17,79,71,64,68,65,58,85,80,68,29.97,29.89,4,0,6,0.07
2014-8-18,83,71,61,70,64,56,86,78,61,29.95,29.78,7,1,8,0.00
2014-8-19,76,70,65,70,64,60,85,82,81,29.78,29.67,5,1,18,1.03
2014-8-20,81,72,64,69,64,59,87,78,65,29.93,29.72,8,1,14,0.01
2014-8-21,82,72,64,73,66,59,87,82,72,29.96,29.90,8,0,10,0.00
2014-8-22,84,75,69,76,70,63,87,82,75,29.99,29.88,3,0,6,0.00
2014-8-23,85,75,67,70,67,62,87,76,56,30.02,29.94,4,0,9,0.00
2014-8-24,87,75,68,71,67,63,86,77,58,30.05,29.99,6,0,10,0.00
2014-8-25,85,75,70,78,70,65,86,84,76,30.02,29.95,4,0,11,0.65
2014-8-26,79,71,63,72,66,59,87,83,79,30.12,29.97,12,1,17,0.85
2014-8-27,78,67,59,64,59,54,87,75,58,30.14,30.08,6,0,9,0.01
2014-8-28,76,66,53,57,54,50,88,68,42,30.16,30.07,5,0,8,0.00
2014-8-29,77,70,62,70,63,53,86,79,67,30.08,29.90,6,1,11,0.00
2014-8-30,83,76,72,73,70,67,87,80,68,29.91,29.77,13,3,24,0.01
2014-8-31,83,74,68,72,67,62,86,78,61,29.92,29.84,8,1,11,0.00
2014-9-1,80,74,68,73,68,63,86,82,70,29.87,29.69,9,2,18,0.11
2014-9-2,79,72,63,66,62,59,87,73,51,29.92,29.77,7,1,12,0.00
2014-9-3,82,70,58,68,59,53,87,70,45,30.01,29.93,8,1,10,0.00
2014-9-4,86,73,65,72,66,60,86,80,60,30.01,29.87,8,1,14,0.84
2014-9-5,82,74,65,75,69,60,86,84,81,29.98,29.85,7,1,18,0.66
2014-9-6,74,66,56,60,56,52,88,73,48,30.14,29.98,9,1,13,0.00
2014-9-7,79,64,51,62,54,47,88,72,39,30.20,30.12,5,0,9,0.00
2014-9-8,80,67,56,59,54,44,87,66,29,30.17,30.00,8,1,10,0.00
2014-9-9,81,70,59,63,60,55,87,72,52,30.03,29.89,5,1,9,0.00
2014-9-10,76,68,55,72,63,51,87,84,80,29.90,29.49,14,3,22,0.92
2014-9-11,60,53,49,51,49,45,88,84,72,30.24,29.72,14,2,17,0.00
2014-9-12,58,52,48,48,46,44,88,82,61,30.34,30.21,4,0,5,0.23
2014-9-13,59,52,44,48,45,41,89,78,58,30.34,30.16,3,1,8,0.14
2014-9-14,62,52,41,48,44,37,89,76,56,30.36,30.19,8,1,12,0.00
2014-9-15,63,53,46,56,48,43,89,85,74,30.18,30.07,2,0,6,0.04
2014-9-16,63,52,42,54,44,38,89,77,51,30.19,30.09,6,1,14,0.01
2014-9-17,66,52,40,53,45,36,89,76,50,30.09,29.98,5,1,12,0.00
2014-9-18,60,48,44,54,44,40,89,85,81,30.20,0.00,2,0,4,0.00
2014-9-19,72,59,47,57,51,43,89,75,55,30.24,29.95,7,1,12,0.00
2014-9-20,76,66,60,68,59,50,87,78,66,29.96,29.70,16,2,17,0.21
2014-9-21,65,58,48,60,53,41,89,84,75,30.10,29.59,9,3,23,0.32
2014-9-22,62,52,42,49,45,39,90,77,61,30.27,30.10,6,1,11,0.00
2014-9-23,72,57,43,58,49,40,89,77,56,30.34,30.26,6,1,9,0.00
2014-9-24,76,61,48,57,51,44,89,73,43,30.41,30.29,4,0,9,0.00
2014-9-25,81,63,51,59,54,47,89,75,43,30.31,30.22,3,0,5,0.00
2014-9-26,81,64,50,59,52,47,89,70,35,30.30,30.22,4,0,7,0.01
2014-9-27,82,64,49,59,54,45,88,72,43,30.30,30.16,3,0,7,0.00
2014-9-28,80,65,54,60,56,49,88,74,48,30.18,30.05,2,0,5,0.00
2014-9-29,77,62,50,63,55,46,89,78,55,30.05,29.89,6,1,11,0.03
2014-9-30,59,52,48,51,48,45,90,84,73,30.05,29.97,4,0,6,0.00